sensor_id;sensor_type;location;lat;lon;timestamp;temperature;humidity
75091;DHT22;63674;48.048;8.306;2023-03-14T00:01:13;7.30;99.90
75091;DHT22;63674;48.048;8.306;2023-03-14T00:03:43;7.40;99.90
75091;DHT22;63674;48.048;8.306;2023-03-14T00:06:12;7.30;99.90
75091;DHT22;63674;48.048;8.306;2023-03-14T00:08:44;7.30;99.90
75091;DHT22;63674;48.048;8.306;2023-03-14T00:11:19;7.20;99.90
75091;DHT22;63674;48.048;8.306;2023-03-14T00:13:48;7.20;99.90
75091;DHT22;63674;48.048;8.306;2023-03-14T00:16:18;7.20;99.90
75091;DHT22;63674;48.048;8.306;2023-03-14T00:18:48;7.20;99.90
75091;DHT22;63674;48.048;8.306;2023-03-14T00:21:17;7.20;99.90
75091;DHT22;63674;48.048;8.306;2023-03-14T00:23:47;7.20;99.90
75091;DHT22;63674;48.048;8.306;2023-03-14T00:26:18;7.10;99.90
75091;DHT22;63674;48.048;8.306;2023-03-14T00:28:51;7.10;99.90
75091;DHT22;63674;48.048;8.306;2023-03-14T00:31:20;7.00;99.90
75091;DHT22;63674;48.048;8.306;2023-03-14T00:33:52;7.10;99.90
75091;DHT22;63674;48.048;8.306;2023-03-14T00:36:21;7.20;99.90
75091;DHT22;63674;48.048;8.306;2023-03-14T00:38:52;7.30;99.90
75091;DHT22;63674;48.048;8.306;2023-03-14T00:41:22;7.30;99.90
75091;DHT22;63674;48.048;8.306;2023-03-14T00:43:51;7.30;99.90
75091;DHT22;63674;48.048;8.306;2023-03-14T00:46:20;7.40;99.90
75091;DHT22;63674;48.048;8.306;2023-03-14T00:48:49;7.40;99.90
75091;DHT22;63674;48.048;8.306;2023-03-14T00:51:18;7.40;99.90
75091;DHT22;63674;48.048;8.306;2023-03-14T00:53:46;7.40;99.90
75091;DHT22;63674;48.048;8.306;2023-03-14T00:56:16;7.40;99.90
75091;DHT22;63674;48.048;8.306;2023-03-14T00:58:45;7.50;99.90
75091;DHT22;63674;48.048;8.306;2023-03-14T01:01:15;7.50;99.90
75091;DHT22;63674;48.048;8.306;2023-03-14T01:03:45;7.50;99.90
75091;DHT22;63674;48.048;8.306;2023-03-14T01:06:16;7.50;99.90
75091;DHT22;63674;48.048;8.306;2023-03-14T01:08:46;7.50;99.90
75091;DHT22;63674;48.048;8.306;2023-03-14T01:11:17;7.50;99.90
75091;DHT22;63674;48.048;8.306;2023-03-14T01:13:47;7.50;99.90
75091;DHT22;63674;48.048;8.306;2023-03-14T01:16:16;7.50;99.90
75091;DHT22;63674;48.048;8.306;2023-03-14T01:18:47;7.40;99.90
75091;DHT22;63674;48.048;8.306;2023-03-14T01:21:19;7.40;99.90
75091;DHT22;63674;48.048;8.306;2023-03-14T01:23:49;7.40;99.90
75091;DHT22;63674;48.048;8.306;2023-03-14T01:26:21;7.40;99.90
75091;DHT22;63674;48.048;8.306;2023-03-14T01:28:53;7.40;99.90
75091;DHT22;63674;48.048;8.306;2023-03-14T01:31:23;7.40;99.90
75091;DHT22;63674;48.048;8.306;2023-03-14T01:33:52;7.30;99.90
75091;DHT22;63674;48.048;8.306;2023-03-14T01:36:21;7.40;99.90
75091;DHT22;63674;48.048;8.306;2023-03-14T01:38:50;7.30;99.90
75091;DHT22;63674;48.048;8.306;2023-03-14T01:41:22;7.30;99.90
75091;DHT22;63674;48.048;8.306;2023-03-14T01:43:52;7.30;99.90
75091;DHT22;63674;48.048;8.306;2023-03-14T01:46:34;7.30;99.90
75091;DHT22;63674;48.048;8.306;2023-03-14T01:49:12;7.30;99.90
75091;DHT22;63674;48.048;8.306;2023-03-14T01:51:47;7.20;99.90
75091;DHT22;63674;48.048;8.306;2023-03-14T01:54:21;7.10;99.90
75091;DHT22;63674;48.048;8.306;2023-03-14T01:56:55;7.10;99.90
75091;DHT22;63674;48.048;8.306;2023-03-14T01:59:26;7.10;99.90
75091;DHT22;63674;48.048;8.306;2023-03-14T02:01:56;7.00;99.90
75091;DHT22;63674;48.048;8.306;2023-03-14T02:04:29;7.00;99.90
75091;DHT22;63674;48.048;8.306;2023-03-14T02:07:03;6.90;99.90
75091;DHT22;63674;48.048;8.306;2023-03-14T02:09:34;6.90;99.90
75091;DHT22;63674;48.048;8.306;2023-03-14T02:12:05;6.90;99.90
75091;DHT22;63674;48.048;8.306;2023-03-14T02:14:36;6.80;99.90
75091;DHT22;63674;48.048;8.306;2023-03-14T02:17:06;6.80;99.90
75091;DHT22;63674;48.048;8.306;2023-03-14T02:19:46;6.80;99.90
75091;DHT22;63674;48.048;8.306;2023-03-14T02:22:24;6.70;99.90
75091;DHT22;63674;48.048;8.306;2023-03-14T02:24:57;6.70;99.90
75091;DHT22;63674;48.048;8.306;2023-03-14T02:27:33;6.60;99.90
75091;DHT22;63674;48.048;8.306;2023-03-14T02:30:05;6.60;99.90
75091;DHT22;63674;48.048;8.306;2023-03-14T02:32:37;6.60;99.90
75091;DHT22;63674;48.048;8.306;2023-03-14T02:35:10;6.60;99.90
75091;DHT22;63674;48.048;8.306;2023-03-14T02:37:42;6.50;99.90
75091;DHT22;63674;48.048;8.306;2023-03-14T02:40:12;6.50;99.90
75091;DHT22;63674;48.048;8.306;2023-03-14T02:42:42;6.50;99.90
75091;DHT22;63674;48.048;8.306;2023-03-14T02:45:33;6.50;99.90
75091;DHT22;63674;48.048;8.306;2023-03-14T02:48:09;6.50;99.90
75091;DHT22;63674;48.048;8.306;2023-03-14T02:50:42;6.50;99.90
75091;DHT22;63674;48.048;8.306;2023-03-14T02:53:13;6.50;99.90
75091;DHT22;63674;48.048;8.306;2023-03-14T02:55:46;6.40;99.90
75091;DHT22;63674;48.048;8.306;2023-03-14T02:58:17;6.50;99.90
75091;DHT22;63674;48.048;8.306;2023-03-14T03:00:47;6.50;99.90
75091;DHT22;63674;48.048;8.306;2023-03-14T03:03:16;6.50;99.90
75091;DHT22;63674;48.048;8.306;2023-03-14T03:05:48;6.40;99.90
75091;DHT22;63674;48.048;8.306;2023-03-14T03:08:18;6.40;99.90
75091;DHT22;63674;48.048;8.306;2023-03-14T03:10:47;6.50;99.90
75091;DHT22;63674;48.048;8.306;2023-03-14T03:13:17;6.50;99.90
75091;DHT22;63674;48.048;8.306;2023-03-14T03:15:46;6.40;99.90
75091;DHT22;63674;48.048;8.306;2023-03-14T03:18:15;6.40;99.90
75091;DHT22;63674;48.048;8.306;2023-03-14T03:20:44;6.40;99.90
75091;DHT22;63674;48.048;8.306;2023-03-14T03:23:12;6.40;99.90
75091;DHT22;63674;48.048;8.306;2023-03-14T03:25:41;6.40;99.90
75091;DHT22;63674;48.048;8.306;2023-03-14T03:28:09;6.40;99.90
75091;DHT22;63674;48.048;8.306;2023-03-14T03:30:41;6.40;99.90
75091;DHT22;63674;48.048;8.306;2023-03-14T03:33:10;6.30;99.90
75091;DHT22;63674;48.048;8.306;2023-03-14T03:35:44;6.30;99.90
75091;DHT22;63674;48.048;8.306;2023-03-14T03:38:14;6.30;99.90
75091;DHT22;63674;48.048;8.306;2023-03-14T03:40:42;6.30;99.90
75091;DHT22;63674;48.048;8.306;2023-03-14T03:43:11;6.40;99.90
75091;DHT22;63674;48.048;8.306;2023-03-14T03:45:41;6.40;99.90
75091;DHT22;63674;48.048;8.306;2023-03-14T03:48:10;6.40;99.90
75091;DHT22;63674;48.048;8.306;2023-03-14T03:50:44;6.40;99.90
75091;DHT22;63674;48.048;8.306;2023-03-14T03:53:13;6.40;99.90
75091;DHT22;63674;48.048;8.306;2023-03-14T03:55:58;6.40;99.90
75091;DHT22;63674;48.048;8.306;2023-03-14T03:58:26;6.40;99.90
75091;DHT22;63674;48.048;8.306;2023-03-14T04:00:56;6.40;99.90
75091;DHT22;63674;48.048;8.306;2023-03-14T04:03:25;6.40;99.90
75091;DHT22;63674;48.048;8.306;2023-03-14T04:06:00;6.40;99.90
75091;DHT22;63674;48.048;8.306;2023-03-14T04:08:30;6.30;99.90
75091;DHT22;63674;48.048;8.306;2023-03-14T04:11:00;6.40;99.90
75091;DHT22;63674;48.048;8.306;2023-03-14T04:13:29;6.40;99.90
75091;DHT22;63674;48.048;8.306;2023-03-14T04:15:59;6.40;99.90
75091;DHT22;63674;48.048;8.306;2023-03-14T04:18:28;6.40;99.90
75091;DHT22;63674;48.048;8.306;2023-03-14T04:20:57;6.40;99.90
75091;DHT22;63674;48.048;8.306;2023-03-14T04:23:26;6.50;99.90
75091;DHT22;63674;48.048;8.306;2023-03-14T04:25:54;6.40;99.90
75091;DHT22;63674;48.048;8.306;2023-03-14T04:28:23;6.50;99.90
75091;DHT22;63674;48.048;8.306;2023-03-14T04:30:51;6.50;99.90
75091;DHT22;63674;48.048;8.306;2023-03-14T04:33:22;6.50;99.90
75091;DHT22;63674;48.048;8.306;2023-03-14T04:35:53;6.60;99.90
75091;DHT22;63674;48.048;8.306;2023-03-14T04:38:23;6.60;99.90
75091;DHT22;63674;48.048;8.306;2023-03-14T04:40:51;6.60;99.90
75091;DHT22;63674;48.048;8.306;2023-03-14T04:43:20;6.60;99.90
75091;DHT22;63674;48.048;8.306;2023-03-14T04:45:48;6.60;99.90
75091;DHT22;63674;48.048;8.306;2023-03-14T04:48:17;6.60;99.90
75091;DHT22;63674;48.048;8.306;2023-03-14T04:50:48;6.60;99.90
75091;DHT22;63674;48.048;8.306;2023-03-14T04:53:17;6.50;99.90
75091;DHT22;63674;48.048;8.306;2023-03-14T04:55:48;6.60;99.90
75091;DHT22;63674;48.048;8.306;2023-03-14T04:58:17;6.60;99.90
75091;DHT22;63674;48.048;8.306;2023-03-14T05:00:46;6.60;99.90
75091;DHT22;63674;48.048;8.306;2023-03-14T05:03:15;6.50;99.90
75091;DHT22;63674;48.048;8.306;2023-03-14T05:05:45;6.50;99.90
75091;DHT22;63674;48.048;8.306;2023-03-14T05:08:14;6.50;99.90
75091;DHT22;63674;48.048;8.306;2023-03-14T05:10:43;6.50;99.90
75091;DHT22;63674;48.048;8.306;2023-03-14T05:13:11;6.50;99.90
75091;DHT22;63674;48.048;8.306;2023-03-14T05:15:40;6.60;99.90
75091;DHT22;63674;48.048;8.306;2023-03-14T05:18:09;6.90;99.90
75091;DHT22;63674;48.048;8.306;2023-03-14T05:20:37;6.60;99.90
75091;DHT22;63674;48.048;8.306;2023-03-14T05:23:07;6.60;99.90
75091;DHT22;63674;48.048;8.306;2023-03-14T05:25:36;6.60;99.90
75091;DHT22;63674;48.048;8.306;2023-03-14T05:28:04;6.60;99.90
75091;DHT22;63674;48.048;8.306;2023-03-14T05:30:33;6.60;99.90
75091;DHT22;63674;48.048;8.306;2023-03-14T05:33:02;6.60;99.90
75091;DHT22;63674;48.048;8.306;2023-03-14T05:35:30;6.60;99.90
75091;DHT22;63674;48.048;8.306;2023-03-14T05:37:59;6.70;99.90
75091;DHT22;63674;48.048;8.306;2023-03-14T05:40:28;6.60;99.90
75091;DHT22;63674;48.048;8.306;2023-03-14T05:42:57;6.50;99.90
75091;DHT22;63674;48.048;8.306;2023-03-14T05:45:26;6.50;99.90
75091;DHT22;63674;48.048;8.306;2023-03-14T05:47:54;6.50;99.90
75091;DHT22;63674;48.048;8.306;2023-03-14T05:50:23;6.60;99.90
75091;DHT22;63674;48.048;8.306;2023-03-14T05:52:52;6.60;99.90
75091;DHT22;63674;48.048;8.306;2023-03-14T05:55:20;6.60;99.90
75091;DHT22;63674;48.048;8.306;2023-03-14T05:57:50;6.60;99.90
75091;DHT22;63674;48.048;8.306;2023-03-14T06:00:19;6.60;99.90
75091;DHT22;63674;48.048;8.306;2023-03-14T06:02:49;6.50;99.90
75091;DHT22;63674;48.048;8.306;2023-03-14T06:05:18;6.60;99.90
75091;DHT22;63674;48.048;8.306;2023-03-14T06:07:46;6.70;99.90
75091;DHT22;63674;48.048;8.306;2023-03-14T06:10:15;6.70;99.90
75091;DHT22;63674;48.048;8.306;2023-03-14T06:12:44;6.70;99.90
75091;DHT22;63674;48.048;8.306;2023-03-14T06:15:13;6.70;99.90
75091;DHT22;63674;48.048;8.306;2023-03-14T06:17:42;6.80;99.90
75091;DHT22;63674;48.048;8.306;2023-03-14T06:20:11;6.70;99.90
75091;DHT22;63674;48.048;8.306;2023-03-14T06:22:40;6.70;99.90
75091;DHT22;63674;48.048;8.306;2023-03-14T06:25:09;6.70;99.90
75091;DHT22;63674;48.048;8.306;2023-03-14T06:27:37;6.70;99.90
75091;DHT22;63674;48.048;8.306;2023-03-14T06:30:07;6.60;99.90
75091;DHT22;63674;48.048;8.306;2023-03-14T06:32:38;6.70;99.90
75091;DHT22;63674;48.048;8.306;2023-03-14T06:35:07;6.70;99.90
75091;DHT22;63674;48.048;8.306;2023-03-14T06:37:36;6.80;99.90
75091;DHT22;63674;48.048;8.306;2023-03-14T06:40:05;6.90;99.90
75091;DHT22;63674;48.048;8.306;2023-03-14T06:42:35;7.00;99.90
75091;DHT22;63674;48.048;8.306;2023-03-14T06:45:05;7.00;99.90
75091;DHT22;63674;48.048;8.306;2023-03-14T06:47:35;7.00;99.90
75091;DHT22;63674;48.048;8.306;2023-03-14T06:50:07;7.10;99.90
75091;DHT22;63674;48.048;8.306;2023-03-14T06:52:37;7.10;99.90
75091;DHT22;63674;48.048;8.306;2023-03-14T06:55:08;7.10;99.90
75091;DHT22;63674;48.048;8.306;2023-03-14T06:57:37;7.20;99.90
75091;DHT22;63674;48.048;8.306;2023-03-14T07:00:06;7.20;99.90
75091;DHT22;63674;48.048;8.306;2023-03-14T07:02:37;7.20;99.90
75091;DHT22;63674;48.048;8.306;2023-03-14T07:05:10;7.30;99.90
75091;DHT22;63674;48.048;8.306;2023-03-14T07:07:39;7.40;99.90
75091;DHT22;63674;48.048;8.306;2023-03-14T07:10:08;7.50;99.90
75091;DHT22;63674;48.048;8.306;2023-03-14T07:12:38;7.50;99.90
75091;DHT22;63674;48.048;8.306;2023-03-14T07:15:07;7.60;99.90
75091;DHT22;63674;48.048;8.306;2023-03-14T07:17:57;7.70;99.90
75091;DHT22;63674;48.048;8.306;2023-03-14T07:20:30;7.70;99.90
75091;DHT22;63674;48.048;8.306;2023-03-14T07:22:59;7.80;99.90
75091;DHT22;63674;48.048;8.306;2023-03-14T07:25:30;7.90;99.90
75091;DHT22;63674;48.048;8.306;2023-03-14T07:27:59;7.90;99.90
75091;DHT22;63674;48.048;8.306;2023-03-14T07:30:27;7.90;99.90
75091;DHT22;63674;48.048;8.306;2023-03-14T07:32:56;7.80;99.90
75091;DHT22;63674;48.048;8.306;2023-03-14T07:35:25;7.70;99.90
75091;DHT22;63674;48.048;8.306;2023-03-14T07:37:55;7.70;99.90
75091;DHT22;63674;48.048;8.306;2023-03-14T07:40:23;7.70;99.90
75091;DHT22;63674;48.048;8.306;2023-03-14T07:42:52;7.60;99.90
75091;DHT22;63674;48.048;8.306;2023-03-14T07:45:22;7.60;99.90
75091;DHT22;63674;48.048;8.306;2023-03-14T07:47:54;7.60;99.90
75091;DHT22;63674;48.048;8.306;2023-03-14T07:50:24;7.50;99.90
75091;DHT22;63674;48.048;8.306;2023-03-14T07:52:55;7.50;99.90
75091;DHT22;63674;48.048;8.306;2023-03-14T07:55:23;7.50;99.90
75091;DHT22;63674;48.048;8.306;2023-03-14T07:57:51;7.50;99.90
75091;DHT22;63674;48.048;8.306;2023-03-14T08:00:21;7.60;99.90
75091;DHT22;63674;48.048;8.306;2023-03-14T08:02:49;7.60;99.90
75091;DHT22;63674;48.048;8.306;2023-03-14T08:05:18;7.60;99.90
75091;DHT22;63674;48.048;8.306;2023-03-14T08:07:47;7.60;99.90
75091;DHT22;63674;48.048;8.306;2023-03-14T08:10:17;7.70;99.90
75091;DHT22;63674;48.048;8.306;2023-03-14T08:12:54;7.70;99.90
75091;DHT22;63674;48.048;8.306;2023-03-14T08:15:24;7.70;99.90
75091;DHT22;63674;48.048;8.306;2023-03-14T08:17:54;7.70;99.90
75091;DHT22;63674;48.048;8.306;2023-03-14T08:20:25;7.60;99.90
75091;DHT22;63674;48.048;8.306;2023-03-14T08:22:56;7.60;99.90
75091;DHT22;63674;48.048;8.306;2023-03-14T08:25:27;7.70;99.90
75091;DHT22;63674;48.048;8.306;2023-03-14T08:27:56;7.70;99.90
75091;DHT22;63674;48.048;8.306;2023-03-14T08:30:25;7.70;99.90
75091;DHT22;63674;48.048;8.306;2023-03-14T08:32:54;7.90;99.90
75091;DHT22;63674;48.048;8.306;2023-03-14T08:35:24;8.00;99.90
75091;DHT22;63674;48.048;8.306;2023-03-14T08:37:53;8.00;99.90
75091;DHT22;63674;48.048;8.306;2023-03-14T08:40:23;8.00;99.90
75091;DHT22;63674;48.048;8.306;2023-03-14T08:42:53;8.00;99.90
75091;DHT22;63674;48.048;8.306;2023-03-14T08:45:21;8.10;99.90
75091;DHT22;63674;48.048;8.306;2023-03-14T08:47:52;8.10;99.90
75091;DHT22;63674;48.048;8.306;2023-03-14T08:50:20;8.10;99.90
75091;DHT22;63674;48.048;8.306;2023-03-14T08:52:50;8.10;99.90
75091;DHT22;63674;48.048;8.306;2023-03-14T08:55:19;8.10;99.90
75091;DHT22;63674;48.048;8.306;2023-03-14T08:57:47;8.00;99.90
75091;DHT22;63674;48.048;8.306;2023-03-14T09:00:19;7.90;99.90
75091;DHT22;63674;48.048;8.306;2023-03-14T09:02:48;7.90;99.90
75091;DHT22;63674;48.048;8.306;2023-03-14T09:05:17;7.80;99.90
75091;DHT22;63674;48.048;8.306;2023-03-14T09:07:46;7.70;99.90
75091;DHT22;63674;48.048;8.306;2023-03-14T09:10:14;7.70;99.90
75091;DHT22;63674;48.048;8.306;2023-03-14T09:12:43;7.70;99.90
75091;DHT22;63674;48.048;8.306;2023-03-14T09:15:12;7.60;99.90
75091;DHT22;63674;48.048;8.306;2023-03-14T09:17:43;7.60;99.90
75091;DHT22;63674;48.048;8.306;2023-03-14T09:20:12;7.70;99.90
75091;DHT22;63674;48.048;8.306;2023-03-14T09:22:41;7.80;99.90
75091;DHT22;63674;48.048;8.306;2023-03-14T09:25:10;7.90;99.90
75091;DHT22;63674;48.048;8.306;2023-03-14T09:27:39;8.00;99.90
75091;DHT22;63674;48.048;8.306;2023-03-14T09:30:29;8.00;99.90
75091;DHT22;63674;48.048;8.306;2023-03-14T09:32:58;8.00;99.90
75091;DHT22;63674;48.048;8.306;2023-03-14T09:35:28;8.10;99.90
75091;DHT22;63674;48.048;8.306;2023-03-14T09:37:57;8.10;99.90
75091;DHT22;63674;48.048;8.306;2023-03-14T09:40:34;8.10;99.90
75091;DHT22;63674;48.048;8.306;2023-03-14T09:43:04;8.10;99.90
75091;DHT22;63674;48.048;8.306;2023-03-14T09:45:34;8.10;99.90
75091;DHT22;63674;48.048;8.306;2023-03-14T09:48:08;8.10;99.90
75091;DHT22;63674;48.048;8.306;2023-03-14T09:50:44;8.00;99.90
75091;DHT22;63674;48.048;8.306;2023-03-14T09:53:16;7.90;99.90
75091;DHT22;63674;48.048;8.306;2023-03-14T09:55:48;7.90;99.90
75091;DHT22;63674;48.048;8.306;2023-03-14T09:58:20;7.90;99.90
75091;DHT22;63674;48.048;8.306;2023-03-14T10:00:50;7.70;99.90
75091;DHT22;63674;48.048;8.306;2023-03-14T10:03:31;7.60;99.90
75091;DHT22;63674;48.048;8.306;2023-03-14T10:06:01;7.70;99.90
75091;DHT22;63674;48.048;8.306;2023-03-14T10:08:31;7.50;99.90
75091;DHT22;63674;48.048;8.306;2023-03-14T10:10:59;7.50;99.90
75091;DHT22;63674;48.048;8.306;2023-03-14T10:13:29;7.40;99.90
75091;DHT22;63674;48.048;8.306;2023-03-14T10:16:00;7.40;99.90
75091;DHT22;63674;48.048;8.306;2023-03-14T10:18:31;7.40;99.90
75091;DHT22;63674;48.048;8.306;2023-03-14T10:21:05;7.40;99.90
75091;DHT22;63674;48.048;8.306;2023-03-14T10:23:35;7.40;99.90
75091;DHT22;63674;48.048;8.306;2023-03-14T10:26:08;7.50;99.90
75091;DHT22;63674;48.048;8.306;2023-03-14T10:28:44;7.50;99.90
75091;DHT22;63674;48.048;8.306;2023-03-14T10:31:14;7.40;99.90
75091;DHT22;63674;48.048;8.306;2023-03-14T10:33:58;7.10;99.90
75091;DHT22;63674;48.048;8.306;2023-03-14T10:36:29;7.00;99.90
75091;DHT22;63674;48.048;8.306;2023-03-14T10:39:16;6.90;99.90
75091;DHT22;63674;48.048;8.306;2023-03-14T10:41:53;6.90;99.90
75091;DHT22;63674;48.048;8.306;2023-03-14T10:44:26;6.80;99.90
75091;DHT22;63674;48.048;8.306;2023-03-14T10:47:00;6.80;99.90
75091;DHT22;63674;48.048;8.306;2023-03-14T10:49:32;6.70;99.90
75091;DHT22;63674;48.048;8.306;2023-03-14T10:52:14;6.80;99.90
75091;DHT22;63674;48.048;8.306;2023-03-14T10:54:47;6.80;99.90
75091;DHT22;63674;48.048;8.306;2023-03-14T10:57:19;6.80;99.90
75091;DHT22;63674;48.048;8.306;2023-03-14T10:59:48;6.80;99.90
75091;DHT22;63674;48.048;8.306;2023-03-14T11:02:38;6.80;99.90
75091;DHT22;63674;48.048;8.306;2023-03-14T11:05:21;6.80;99.90
75091;DHT22;63674;48.048;8.306;2023-03-14T11:07:56;6.70;99.90
75091;DHT22;63674;48.048;8.306;2023-03-14T11:10:32;6.70;99.90
75091;DHT22;63674;48.048;8.306;2023-03-14T11:13:13;6.60;99.90
75091;DHT22;63674;48.048;8.306;2023-03-14T11:15:54;6.60;99.90
75091;DHT22;63674;48.048;8.306;2023-03-14T11:18:49;6.60;99.90
75091;DHT22;63674;48.048;8.306;2023-03-14T11:21:30;6.60;99.90
75091;DHT22;63674;48.048;8.306;2023-03-14T11:24:12;6.60;99.90
75091;DHT22;63674;48.048;8.306;2023-03-14T11:26:53;6.60;99.90
75091;DHT22;63674;48.048;8.306;2023-03-14T11:29:30;6.60;99.90
75091;DHT22;63674;48.048;8.306;2023-03-14T11:32:11;6.50;99.90
75091;DHT22;63674;48.048;8.306;2023-03-14T11:34:47;6.40;99.90
75091;DHT22;63674;48.048;8.306;2023-03-14T11:37:24;6.50;99.90
75091;DHT22;63674;48.048;8.306;2023-03-14T11:39:59;6.50;99.90
75091;DHT22;63674;48.048;8.306;2023-03-14T11:42:38;6.60;99.90
75091;DHT22;63674;48.048;8.306;2023-03-14T11:45:15;6.70;99.90
75091;DHT22;63674;48.048;8.306;2023-03-14T11:47:48;6.70;99.90
75091;DHT22;63674;48.048;8.306;2023-03-14T11:50:24;6.70;99.90
75091;DHT22;63674;48.048;8.306;2023-03-14T11:52:58;6.80;99.90
75091;DHT22;63674;48.048;8.306;2023-03-14T11:55:32;6.80;99.90
75091;DHT22;63674;48.048;8.306;2023-03-14T11:58:10;6.80;99.90
75091;DHT22;63674;48.048;8.306;2023-03-14T12:00:41;6.80;99.90
75091;DHT22;63674;48.048;8.306;2023-03-14T12:03:14;6.30;99.90
75091;DHT22;63674;48.048;8.306;2023-03-14T12:05:54;5.80;99.90
75091;DHT22;63674;48.048;8.306;2023-03-14T12:08:43;5.40;99.90
75091;DHT22;63674;48.048;8.306;2023-03-14T12:11:19;5.30;99.90
75091;DHT22;63674;48.048;8.306;2023-03-14T12:13:52;5.20;99.90
75091;DHT22;63674;48.048;8.306;2023-03-14T12:16:33;5.20;99.90
75091;DHT22;63674;48.048;8.306;2023-03-14T12:19:28;5.20;99.90
75091;DHT22;63674;48.048;8.306;2023-03-14T12:22:16;5.30;99.90
75091;DHT22;63674;48.048;8.306;2023-03-14T12:24:54;5.40;99.90
75091;DHT22;63674;48.048;8.306;2023-03-14T12:27:45;5.40;99.90
75091;DHT22;63674;48.048;8.306;2023-03-14T12:30:41;5.50;99.90
75091;DHT22;63674;48.048;8.306;2023-03-14T12:33:31;5.50;99.90
75091;DHT22;63674;48.048;8.306;2023-03-14T12:36:03;5.60;99.90
75091;DHT22;63674;48.048;8.306;2023-03-14T12:38:59;5.50;99.90
75091;DHT22;63674;48.048;8.306;2023-03-14T12:41:40;5.20;99.90
75091;DHT22;63674;48.048;8.306;2023-03-14T12:44:39;5.20;99.90
75091;DHT22;63674;48.048;8.306;2023-03-14T12:50:23;4.90;99.90
75091;DHT22;63674;48.048;8.306;2023-03-14T12:53:27;4.80;99.90
75091;DHT22;63674;48.048;8.306;2023-03-14T12:59:34;4.60;99.90
75091;DHT22;63674;48.048;8.306;2023-03-14T13:02:24;4.60;99.90
75091;DHT22;63674;48.048;8.306;2023-03-14T13:05:01;4.60;99.90
75091;DHT22;63674;48.048;8.306;2023-03-14T13:07:35;4.60;99.90
75091;DHT22;63674;48.048;8.306;2023-03-14T13:10:18;4.80;99.90
75091;DHT22;63674;48.048;8.306;2023-03-14T13:12:52;4.70;99.90
75091;DHT22;63674;48.048;8.306;2023-03-14T13:15:29;4.70;99.90
75091;DHT22;63674;48.048;8.306;2023-03-14T13:18:02;4.70;99.90
75091;DHT22;63674;48.048;8.306;2023-03-14T13:20:36;4.80;99.90
75091;DHT22;63674;48.048;8.306;2023-03-14T13:23:20;4.70;99.90
75091;DHT22;63674;48.048;8.306;2023-03-14T13:25:49;4.60;99.90
75091;DHT22;63674;48.048;8.306;2023-03-14T13:28:19;4.60;99.90
75091;DHT22;63674;48.048;8.306;2023-03-14T13:30:50;4.70;99.90
75091;DHT22;63674;48.048;8.306;2023-03-14T13:33:23;4.70;99.90
75091;DHT22;63674;48.048;8.306;2023-03-14T13:35:56;4.70;99.90
75091;DHT22;63674;48.048;8.306;2023-03-14T13:38:27;4.70;99.90
75091;DHT22;63674;48.048;8.306;2023-03-14T13:40:58;4.70;99.90
75091;DHT22;63674;48.048;8.306;2023-03-14T13:43:30;4.60;99.90
75091;DHT22;63674;48.048;8.306;2023-03-14T13:46:04;4.60;99.90
75091;DHT22;63674;48.048;8.306;2023-03-14T13:48:42;4.70;99.90
75091;DHT22;63674;48.048;8.306;2023-03-14T13:51:13;4.80;99.90
75091;DHT22;63674;48.048;8.306;2023-03-14T13:53:46;4.80;99.90
75091;DHT22;63674;48.048;8.306;2023-03-14T13:56:17;4.80;99.90
75091;DHT22;63674;48.048;8.306;2023-03-14T13:58:48;4.80;99.90
75091;DHT22;63674;48.048;8.306;2023-03-14T14:01:18;4.80;99.90
75091;DHT22;63674;48.048;8.306;2023-03-14T14:03:50;4.70;99.90
75091;DHT22;63674;48.048;8.306;2023-03-14T14:06:27;4.60;99.90
75091;DHT22;63674;48.048;8.306;2023-03-14T14:09:01;4.50;99.90
75091;DHT22;63674;48.048;8.306;2023-03-14T14:11:41;4.60;99.90
75091;DHT22;63674;48.048;8.306;2023-03-14T14:14:30;4.60;99.90
75091;DHT22;63674;48.048;8.306;2023-03-14T14:17:01;4.60;99.90
75091;DHT22;63674;48.048;8.306;2023-03-14T14:19:33;4.60;99.90
75091;DHT22;63674;48.048;8.306;2023-03-14T14:22:03;4.60;99.90
75091;DHT22;63674;48.048;8.306;2023-03-14T14:24:34;4.50;99.90
75091;DHT22;63674;48.048;8.306;2023-03-14T14:27:12;4.50;99.90
75091;DHT22;63674;48.048;8.306;2023-03-14T14:29:44;4.60;99.90
75091;DHT22;63674;48.048;8.306;2023-03-14T14:32:24;4.60;99.90
75091;DHT22;63674;48.048;8.306;2023-03-14T14:34:58;4.70;99.90
75091;DHT22;63674;48.048;8.306;2023-03-14T14:37:29;4.70;99.90
75091;DHT22;63674;48.048;8.306;2023-03-14T14:40:01;4.70;99.90
75091;DHT22;63674;48.048;8.306;2023-03-14T14:42:39;4.60;99.90
75091;DHT22;63674;48.048;8.306;2023-03-14T14:45:14;4.60;99.90
75091;DHT22;63674;48.048;8.306;2023-03-14T14:47:50;4.60;99.90
75091;DHT22;63674;48.048;8.306;2023-03-14T14:50:29;4.60;99.90
75091;DHT22;63674;48.048;8.306;2023-03-14T14:52:59;4.50;99.90
75091;DHT22;63674;48.048;8.306;2023-03-14T14:55:31;4.60;99.90
75091;DHT22;63674;48.048;8.306;2023-03-14T14:58:14;4.60;99.90
75091;DHT22;63674;48.048;8.306;2023-03-14T15:00:56;4.60;99.90
75091;DHT22;63674;48.048;8.306;2023-03-14T15:03:30;4.50;99.90
75091;DHT22;63674;48.048;8.306;2023-03-14T15:06:01;4.60;99.90
75091;DHT22;63674;48.048;8.306;2023-03-14T15:08:30;4.70;99.90
75091;DHT22;63674;48.048;8.306;2023-03-14T15:10:59;4.80;99.90
75091;DHT22;63674;48.048;8.306;2023-03-14T15:13:28;4.80;99.90
75091;DHT22;63674;48.048;8.306;2023-03-14T15:15:58;4.80;99.90
75091;DHT22;63674;48.048;8.306;2023-03-14T15:18:28;4.80;99.90
75091;DHT22;63674;48.048;8.306;2023-03-14T15:20:58;4.70;99.90
75091;DHT22;63674;48.048;8.306;2023-03-14T15:23:26;4.70;99.90
75091;DHT22;63674;48.048;8.306;2023-03-14T15:25:55;4.70;99.90
75091;DHT22;63674;48.048;8.306;2023-03-14T15:28:25;4.70;99.90
75091;DHT22;63674;48.048;8.306;2023-03-14T15:30:56;4.70;99.90
75091;DHT22;63674;48.048;8.306;2023-03-14T15:33:26;4.80;99.90
75091;DHT22;63674;48.048;8.306;2023-03-14T15:35:55;4.80;99.90
75091;DHT22;63674;48.048;8.306;2023-03-14T15:38:25;4.90;99.90
75091;DHT22;63674;48.048;8.306;2023-03-14T15:40:53;4.80;99.90
75091;DHT22;63674;48.048;8.306;2023-03-14T15:43:22;4.70;99.90
75091;DHT22;63674;48.048;8.306;2023-03-14T15:45:50;4.90;99.90
75091;DHT22;63674;48.048;8.306;2023-03-14T15:48:21;5.00;99.90
75091;DHT22;63674;48.048;8.306;2023-03-14T15:50:49;5.10;99.90
75091;DHT22;63674;48.048;8.306;2023-03-14T15:53:18;5.10;99.90
75091;DHT22;63674;48.048;8.306;2023-03-14T15:55:46;5.00;99.90
75091;DHT22;63674;48.048;8.306;2023-03-14T15:58:17;4.90;99.90
75091;DHT22;63674;48.048;8.306;2023-03-14T16:00:48;4.90;99.90
75091;DHT22;63674;48.048;8.306;2023-03-14T16:03:17;5.00;99.90
75091;DHT22;63674;48.048;8.306;2023-03-14T16:05:47;5.00;99.90
75091;DHT22;63674;48.048;8.306;2023-03-14T16:08:16;5.00;99.90
75091;DHT22;63674;48.048;8.306;2023-03-14T16:10:45;4.90;99.90
75091;DHT22;63674;48.048;8.306;2023-03-14T16:13:14;4.90;99.90
75091;DHT22;63674;48.048;8.306;2023-03-14T16:15:53;4.80;99.90
75091;DHT22;63674;48.048;8.306;2023-03-14T16:18:22;4.80;99.90
75091;DHT22;63674;48.048;8.306;2023-03-14T16:20:53;4.80;99.90
75091;DHT22;63674;48.048;8.306;2023-03-14T16:23:23;4.80;99.90